Maxie, Mississippi
Current Conditions -  °F | °C
As of 10:53 AM on Friday 24 Oct 2014 (Local Time) from KHBG Reporting Station
Clear Clear  
Wind Chill: 66°   Ceiling: Unl
Heat Index: 66°   Visibility: 10mi
Dew Point: 51°   Wind: 5mph
Humidity: 59%   Direction: 340°NNW
Pressure: 30.13"   Gusts: NA
Location:  30.9811°N, 89.2354°W
Report Text: KHBG 241553Z AUTO 34004KT 10SM CLR 19/11 A3013 RMK AO2 SLP202 T01890106
Loading
Personal Weather Stations






























Interactive Weather Map
Tropical Storm Tracking
New forecast layout! Learn more

10-Day Weather Forecast

Advertisements
Track Severe Weather on mobile